Time;durP1;ratioP1;P1;durP2;ratioP2;P2;SDS_P1;SDS_P2;PMS_P1;PMS_P2;Temp;Humidity;BMP_temperature;BMP_pressure;BME280_temperature;BME280_humidity;BME280_pressure;Samples;Min_cycle;Max_cycle;Signal;HPM_P1;HPM_P2
2021/07/19 00:01:26;;;;;;;15.67;14.83;;;19.60;99.90;;;;;;5011365;28;20481;-68
2021/07/19 00:03:52;;;;;;;14.77;14.00;;;19.60;99.90;;;;;;5014894;28;20485;-68
2021/07/19 00:06:19;;;;;;;14.30;13.70;;;19.60;99.90;;;;;;5015000;28;20438;-68
2021/07/19 00:08:46;;;;;;;14.57;13.80;;;19.60;99.90;;;;;;5015041;28;20445;-68
2021/07/19 00:11:13;;;;;;;15.43;14.43;;;19.50;99.90;;;;;;5014739;28;20466;-68
2021/07/19 00:13:40;;;;;;;15.10;14.40;;;19.50;99.90;;;;;;5014430;28;20879;-68
2021/07/19 00:16:07;;;;;;;14.90;14.10;;;19.40;99.90;;;;;;5014705;28;20808;-68
2021/07/19 00:18:36;;;;;;;15.70;14.90;;;19.40;99.90;;;;;;5014948;28;20452;-68
2021/07/19 00:21:03;;;;;;;14.87;13.97;;;19.20;99.90;;;;;;5014473;28;20465;-68
2021/07/19 00:23:30;;;;;;;14.27;13.57;;;19.20;99.90;;;;;;5014706;28;20480;-68
2021/07/19 00:25:57;;;;;;;15.30;14.20;;;19.20;99.90;;;;;;5014719;28;20449;-68
2021/07/19 00:28:24;;;;;;;13.80;13.10;;;19.20;99.90;;;;;;5014437;28;20465;-68
2021/07/19 00:30:51;;;;;;;14.37;13.17;;;19.30;99.90;;;;;;5014196;28;20446;-68
2021/07/19 00:33:18;;;;;;;14.53;13.53;;;19.20;99.90;;;;;;5053162;22;20500;-71
2021/07/19 00:35:49;;;;;;;14.03;13.23;;;19.20;99.90;;;;;;5034230;28;20437;-71
2021/07/19 00:38:15;;;;;;;15.07;14.30;;;19.30;99.90;;;;;;5034318;28;20441;-71
2021/07/19 00:40:42;;;;;;;14.57;13.57;;;19.30;99.90;;;;;;5034245;28;20441;-72
2021/07/19 00:43:09;;;;;;;14.37;13.60;;;19.30;99.90;;;;;;5018082;28;20488;-72
2021/07/19 00:45:37;;;;;;;14.10;13.30;;;19.30;99.90;;;;;;5014313;28;20454;-71
2021/07/19 00:48:05;;;;;;;14.97;14.07;;;19.20;99.90;;;;;;5014092;28;20943;-72
2021/07/19 00:50:34;;;;;;;14.33;13.53;;;19.10;99.90;;;;;;5014364;28;20442;-71
2021/07/19 00:53:03;;;;;;;15.53;14.50;;;19.10;99.90;;;;;;5013950;28;20466;-72
2021/07/19 00:55:33;;;;;;;14.50;13.80;;;19.00;99.90;;;;;;5014389;28;20446;-71
2021/07/19 00:58:02;;;;;;;14.13;13.50;;;19.00;99.90;;;;;;5014118;28;20458;-71
2021/07/19 01:00:29;;;;;;;14.30;13.60;;;19.00;99.90;;;;;;5014197;28;20450;-71
2021/07/19 01:02:56;;;;;;;13.80;13.10;;;19.00;99.90;;;;;;5013654;28;20466;-71
2021/07/19 01:05:26;;;;;;;13.50;12.80;;;18.90;99.90;;;;;;5014014;28;20977;-71
2021/07/19 01:07:55;;;;;;;15.43;14.13;;;18.90;99.90;;;;;;5014056;28;20512;-71
2021/07/19 01:10:24;;;;;;;13.50;12.80;;;18.90;99.90;;;;;;5013987;28;20449;-72
2021/07/19 01:12:54;;;;;;;14.63;13.80;;;19.00;99.90;;;;;;5013070;28;20465;-72
2021/07/19 01:15:21;;;;;;;14.20;13.40;;;18.90;99.90;;;;;;5013045;28;20442;-72
2021/07/19 01:17:49;;;;;;;14.57;13.77;;;18.80;99.90;;;;;;5014092;28;20492;-72
2021/07/19 01:20:17;;;;;;;14.80;13.97;;;18.80;99.90;;;;;;5013584;28;20830;-71
2021/07/19 01:23:09;;;;;;;14.27;13.27;;;18.70;99.90;;;;;;5013339;28;20751;-71
2021/07/19 01:26:13;;;;;;;14.00;13.40;;;18.70;99.90;;;;;;5013733;28;20477;-72
2021/07/19 01:28:44;;;;;;;13.03;12.30;;;18.70;99.90;;;;;;5013825;28;20449;-72
2021/07/19 01:31:14;;;;;;;14.43;13.43;;;18.70;99.90;;;;;;5013215;28;20453;-71
2021/07/19 01:33:45;;;;;;;13.70;13.00;;;18.60;99.90;;;;;;5013305;28;20458;-71
2021/07/19 01:36:16;;;;;;;14.07;13.23;;;18.60;99.90;;;;;;5013462;28;20448;-71
2021/07/19 01:38:43;;;;;;;14.93;13.73;;;18.50;99.90;;;;;;5013330;28;20449;-72
2021/07/19 01:41:11;;;;;;;14.80;13.93;;;18.60;99.90;;;;;;5013129;28;20450;-71
2021/07/19 01:43:40;;;;;;;14.23;13.43;;;18.70;99.90;;;;;;5013173;28;20505;-72
2021/07/19 01:46:08;;;;;;;13.50;12.80;;;18.70;99.90;;;;;;5013127;28;20450;-72
2021/07/19 01:48:36;;;;;;;13.57;12.87;;;18.80;99.90;;;;;;5013025;28;20441;-72
2021/07/19 01:51:04;;;;;;;14.43;13.60;;;18.70;99.90;;;;;;5012766;28;20450;-72
2021/07/19 01:53:31;;;;;;;14.20;13.40;;;18.60;99.90;;;;;;5012591;28;20485;-72
2021/07/19 01:55:58;;;;;;;15.10;14.10;;;18.50;99.90;;;;;;5013104;28;20449;-72
2021/07/19 01:58:26;;;;;;;13.90;13.07;;;18.50;99.90;;;;;;5012910;28;20931;-72
2021/07/19 02:00:54;;;;;;;14.70;13.70;;;18.40;99.90;;;;;;5013043;28;20477;-72
2021/07/19 02:03:23;;;;;;;14.50;13.83;;;18.30;99.90;;;;;;5012729;28;20469;-72
2021/07/19 02:05:52;;;;;;;13.37;12.70;;;18.10;99.90;;;;;;5012945;28;20927;-72
2021/07/19 02:08:22;;;;;;;16.00;14.77;;;18.10;99.90;;;;;;5012999;28;20441;-71
2021/07/19 02:10:50;;;;;;;14.40;13.47;;;18.00;99.90;;;;;;5012674;28;20445;-71
2021/07/19 02:13:18;;;;;;;16.13;15.13;;;17.90;99.90;;;;;;5012116;28;20466;-71
2021/07/19 02:15:46;;;;;;;14.33;13.27;;;17.90;99.90;;;;;;5012854;28;21071;-71
2021/07/19 02:18:16;;;;;;;15.17;14.30;;;17.90;99.90;;;;;;5012836;28;20942;-71
2021/07/19 02:20:45;;;;;;;15.80;14.70;;;17.80;99.90;;;;;;5012524;28;20449;-71
2021/07/19 02:23:14;;;;;;;15.10;14.03;;;17.90;99.90;;;;;;5012434;28;20458;-71
2021/07/19 02:25:42;;;;;;;14.93;13.93;;;17.90;99.90;;;;;;5012371;28;20449;-71
2021/07/19 02:28:11;;;;;;;15.00;13.80;;;17.90;99.90;;;;;;5012283;28;20457;-72
2021/07/19 02:30:39;;;;;;;14.70;13.70;;;18.00;99.90;;;;;;5011871;28;20477;-72
2021/07/19 02:33:06;;;;;;;16.53;15.23;;;18.00;99.90;;;;;;5012116;28;20482;-71
2021/07/19 02:35:33;;;;;;;15.57;14.47;;;18.00;99.90;;;;;;5012655;28;20478;-72
2021/07/19 02:38:06;;;;;;;14.33;13.63;;;17.90;99.90;;;;;;5012676;28;20468;-72
2021/07/19 02:40:34;;;;;;;12.87;12.10;;;17.90;99.90;;;;;;5012717;28;20483;-72
2021/07/19 02:43:05;;;;;;;14.57;13.53;;;17.90;99.90;;;;;;5012044;28;20477;-72
2021/07/19 02:45:35;;;;;;;13.13;12.20;;;17.80;99.90;;;;;;5012244;28;20445;-71
2021/07/19 02:48:03;;;;;;;13.80;13.00;;;17.80;99.90;;;;;;4992956;28;20450;-71
2021/07/19 02:50:31;;;;;;;15.33;14.07;;;18.00;99.90;;;;;;4992778;28;20447;-71
2021/07/19 02:52:59;;;;;;;13.87;13.27;;;17.90;99.90;;;;;;4992342;28;20533;-71
2021/07/19 02:55:30;;;;;;;13.17;12.50;;;18.00;99.90;;;;;;4992351;28;20482;-71
2021/07/19 02:57:56;;;;;;;14.33;13.57;;;17.90;99.90;;;;;;4992457;28;20451;-71
2021/07/19 03:00:24;;;;;;;13.80;13.10;;;17.90;99.90;;;;;;4993491;28;20455;-71
2021/07/19 03:02:53;;;;;;;16.07;14.97;;;17.80;99.90;;;;;;5011730;28;20501;-71
2021/07/19 03:05:25;;;;;;;15.50;14.50;;;17.70;99.90;;;;;;5011913;28;20438;-71
2021/07/19 03:07:55;;;;;;;14.10;13.17;;;17.70;99.90;;;;;;5011785;28;20508;-71
2021/07/19 03:10:23;;;;;;;13.80;13.10;;;17.60;99.90;;;;;;5011365;28;20831;-72
2021/07/19 03:12:55;;;;;;;13.50;12.80;;;17.60;99.90;;;;;;5011733;28;20470;-71
2021/07/19 03:15:26;;;;;;;15.07;14.10;;;17.60;99.90;;;;;;5011825;28;20488;-72
2021/07/19 03:17:53;;;;;;;13.17;12.47;;;17.50;99.90;;;;;;5011663;28;20446;-71
2021/07/19 03:20:20;;;;;;;12.97;12.27;;;17.50;99.90;;;;;;5012109;28;20449;-71
2021/07/19 03:22:49;;;;;;;15.13;13.97;;;17.50;99.90;;;;;;5011705;28;20470;-71
2021/07/19 03:25:16;;;;;;;16.23;15.23;;;17.50;99.90;;;;;;5012109;28;20450;-71
2021/07/19 03:27:43;;;;;;;14.20;13.30;;;17.40;99.90;;;;;;5011894;28;20461;-71
2021/07/19 03:30:13;;;;;;;15.07;14.03;;;17.40;99.90;;;;;;5011843;28;20457;-71
2021/07/19 03:32:41;;;;;;;14.00;13.10;;;17.50;99.90;;;;;;5011641;28;20509;-70
2021/07/19 03:35:09;;;;;;;14.27;13.47;;;17.60;99.90;;;;;;5011279;28;20485;-71
2021/07/19 03:37:37;;;;;;;14.20;13.50;;;17.50;99.90;;;;;;5013570;28;20452;-71
2021/07/19 03:40:05;;;;;;;15.13;14.00;;;17.50;99.90;;;;;;5015758;28;20453;-71
2021/07/19 03:42:35;;;;;;;14.17;13.37;;;17.60;99.90;;;;;;5015266;28;20469;-70
2021/07/19 03:45:02;;;;;;;14.40;13.50;;;17.80;99.90;;;;;;5015606;28;20520;-71
2021/07/19 03:47:31;;;;;;;14.23;13.30;;;17.90;99.90;;;;;;5015404;28;21129;-71
2021/07/19 03:49:59;;;;;;;15.17;14.17;;;17.80;99.90;;;;;;5015010;28;20452;-71
2021/07/19 03:52:27;;;;;;;15.27;13.80;;;17.90;99.90;;;;;;5015119;28;20473;-71
2021/07/19 03:54:54;;;;;;;15.77;14.40;;;17.90;99.90;;;;;;5015170;28;20478;-71
2021/07/19 03:57:21;;;;;;;14.07;13.37;;;18.10;99.90;;;;;;5015188;28;20445;-71
2021/07/19 03:59:49;;;;;;;15.93;14.70;;;18.10;99.90;;;;;;5015185;28;20997;-71
2021/07/19 04:02:19;;;;;;;16.00;15.00;;;17.90;99.90;;;;;;5014809;28;20963;-71
2021/07/19 04:04:54;;;;;;;16.47;15.27;;;17.80;99.90;;;;;;5015310;28;20446;-71
2021/07/19 04:07:21;;;;;;;17.13;15.90;;;17.60;99.90;;;;;;5014964;28;20450;-71
2021/07/19 04:09:48;;;;;;;17.67;16.00;;;17.50;99.90;;;;;;5015418;28;20446;-71
2021/07/19 04:12:16;;;;;;;14.93;13.93;;;17.60;99.90;;;;;;5014735;28;20469;-71
2021/07/19 04:14:45;;;;;;;15.60;14.50;;;17.60;99.90;;;;;;5014679;28;20551;-71
2021/07/19 04:17:12;;;;;;;15.57;14.33;;;17.60;99.90;;;;;;5012753;28;20453;-70
2021/07/19 04:19:43;;;;;;;15.67;14.37;;;17.60;99.90;;;;;;5014427;28;20477;-71
2021/07/19 04:22:11;;;;;;;15.80;14.80;;;17.60;99.90;;;;;;5013933;28;20830;-70
2021/07/19 04:24:38;;;;;;;16.70;15.60;;;17.60;99.90;;;;;;5014813;28;20464;-69
2021/07/19 04:27:05;;;;;;;17.33;16.10;;;17.70;99.90;;;;;;5014888;28;20449;-69
2021/07/19 04:29:32;;;;;;;18.13;16.33;;;17.60;99.90;;;;;;5014832;28;20446;-69
2021/07/19 04:32:00;;;;;;;18.97;17.30;;;17.50;99.90;;;;;;5014338;28;21021;-69
2021/07/19 04:34:28;;;;;;;16.63;15.20;;;17.40;99.90;;;;;;5014536;28;20485;-69
2021/07/19 04:36:58;;;;;;;16.73;15.53;;;17.40;99.90;;;;;;5014237;28;20461;-69
2021/07/19 04:39:27;;;;;;;17.67;16.47;;;17.50;99.90;;;;;;5014422;28;20450;-69
2021/07/19 04:41:54;;;;;;;17.03;16.03;;;17.50;99.90;;;;;;5014146;28;20469;-69
2021/07/19 04:44:21;;;;;;;17.23;15.73;;;17.60;99.90;;;;;;5014268;28;20469;-69
2021/07/19 04:46:50;;;;;;;17.00;15.80;;;17.60;99.90;;;;;;5014085;28;20449;-69
2021/07/19 04:49:17;;;;;;;17.80;16.80;;;17.70;99.90;;;;;;5012768;28;20899;-69
2021/07/19 04:51:44;;;;;;;18.43;17.40;;;17.80;99.90;;;;;;5013802;28;20832;-69
2021/07/19 04:54:11;;;;;;;18.30;16.80;;;17.80;99.90;;;;;;5014111;28;20446;-69
2021/07/19 04:56:40;;;;;;;17.50;16.40;;;17.80;99.90;;;;;;5014035;28;20458;-69
2021/07/19 04:59:08;;;;;;;18.87;17.47;;;17.90;99.90;;;;;;5014056;28;20454;-69
2021/07/19 05:01:36;;;;;;;19.60;18.13;;;17.90;99.90;;;;;;5013612;28;20975;-69
2021/07/19 05:04:06;;;;;;;17.37;16.27;;;18.00;99.90;;;;;;5013905;28;20446;-70
2021/07/19 05:06:34;;;;;;;19.40;17.83;;;18.10;99.90;;;;;;5013867;28;20442;-69
2021/07/19 05:09:02;;;;;;;18.83;17.53;;;18.20;99.90;;;;;;5013609;28;20446;-69
2021/07/19 05:11:29;;;;;;;19.37;18.20;;;18.30;99.90;;;;;;5013435;28;20513;-69
2021/07/19 05:13:58;;;;;;;18.50;17.20;;;18.30;99.90;;;;;;5013793;28;20448;-69
2021/07/19 05:16:28;;;;;;;18.10;16.87;;;18.50;99.90;;;;;;5013536;28;20478;-69
2021/07/19 05:18:55;;;;;;;17.87;16.37;;;18.70;99.90;;;;;;5013581;28;20532;-69
2021/07/19 05:21:23;;;;;;;18.70;17.60;;;18.80;99.90;;;;;;5013365;28;20503;-70
2021/07/19 05:23:49;;;;;;;19.07;17.90;;;18.90;99.90;;;;;;5013501;28;20457;-69
2021/07/19 05:26:16;;;;;;;19.37;18.00;;;19.10;99.90;;;;;;5013545;28;20445;-70
2021/07/19 05:28:44;;;;;;;18.00;16.83;;;19.20;99.90;;;;;;5013348;28;20442;-70
2021/07/19 05:31:12;;;;;;;20.00;18.33;;;19.20;99.90;;;;;;5013162;28;20446;-69
2021/07/19 05:33:38;;;;;;;18.53;17.40;;;19.40;99.90;;;;;;5013168;28;20478;-69
2021/07/19 05:36:05;;;;;;;19.50;18.13;;;19.50;99.90;;;;;;5013260;28;20935;-69
2021/07/19 05:38:32;;;;;;;21.40;19.30;;;19.60;99.90;;;;;;5013346;28;20446;-70
2021/07/19 05:40:59;;;;;;;18.93;17.73;;;19.70;99.90;;;;;;5013126;28;20441;-69
2021/07/19 05:43:25;;;;;;;19.80;18.33;;;19.80;99.90;;;;;;5012899;28;20974;-69
2021/07/19 05:45:52;;;;;;;19.23;18.03;;;19.80;99.90;;;;;;5013168;28;20442;-69
2021/07/19 05:48:20;;;;;;;20.50;18.90;;;19.70;99.90;;;;;;5013118;28;20808;-69
2021/07/19 05:50:47;;;;;;;20.57;19.13;;;19.60;99.90;;;;;;5013105;28;20464;-70
2021/07/19 05:53:13;;;;;;;20.73;19.17;;;19.70;99.90;;;;;;5012682;28;20481;-70
2021/07/19 05:55:40;;;;;;;20.17;18.93;;;19.70;99.90;;;;;;5012788;28;20481;-70
2021/07/19 05:58:07;;;;;;;19.43;18.23;;;19.70;99.90;;;;;;5012909;28;20455;-69
2021/07/19 06:00:34;;;;;;;20.47;18.97;;;19.80;99.90;;;;;;5012473;28;20442;-70
2021/07/19 06:03:00;;;;;;;20.73;19.23;;;19.90;99.90;;;;;;5012356;28;20473;-70
2021/07/19 06:05:28;;;;;;;20.10;18.70;;;20.00;99.90;;;;;;5012636;28;20453;-69
2021/07/19 06:07:55;;;;;;;20.07;18.87;;;20.00;99.90;;;;;;5012713;28;20553;-69
2021/07/19 06:10:22;;;;;;;21.77;20.37;;;20.10;99.90;;;;;;5012696;28;20442;-69
2021/07/19 06:12:49;;;;;;;20.13;18.90;;;20.30;99.90;;;;;;5012260;28;20835;-69
2021/07/19 06:15:16;;;;;;;20.93;19.60;;;20.40;99.90;;;;;;5012325;28;20496;-69
2021/07/19 06:17:43;;;;;;;19.63;18.43;;;20.60;99.90;;;;;;5012609;28;20796;-69
2021/07/19 06:20:12;;;;;;;20.57;19.47;;;20.70;99.90;;;;;;5012505;28;20947;-70
2021/07/19 06:22:41;;;;;;;21.07;19.77;;;20.80;99.90;;;;;;5012231;28;20458;-70
2021/07/19 06:25:09;;;;;;;21.77;20.07;;;20.80;99.90;;;;;;5012525;28;20508;-70
2021/07/19 06:27:36;;;;;;;19.87;18.77;;;20.80;99.90;;;;;;5012430;28;20469;-70
2021/07/19 06:30:04;;;;;;;21.03;19.43;;;20.90;99.90;;;;;;5012243;28;20450;-70
2021/07/19 06:32:30;;;;;;;20.53;19.33;;;21.10;99.90;;;;;;5012494;28;20481;-70
2021/07/19 06:34:57;;;;;;;22.07;20.67;;;21.10;99.90;;;;;;5012153;28;20923;-71
2021/07/19 06:37:24;;;;;;;20.70;19.50;;;21.10;99.90;;;;;;5012342;28;20931;-70
2021/07/19 06:39:52;;;;;;;20.80;19.30;;;21.30;99.90;;;;;;5012364;28;20836;-71
2021/07/19 06:42:19;;;;;;;20.57;19.27;;;21.40;99.90;;;;;;5011877;28;20547;-71
2021/07/19 06:44:47;;;;;;;20.60;19.40;;;21.40;99.90;;;;;;5012257;28;20450;-70
2021/07/19 06:47:14;;;;;;;20.57;19.37;;;21.40;99.90;;;;;;5012158;28;20970;-71
2021/07/19 06:49:40;;;;;;;20.90;19.60;;;21.60;99.90;;;;;;5011955;28;20460;-70
2021/07/19 06:52:07;;;;;;;20.57;19.23;;;21.70;99.90;;;;;;5011827;28;20465;-71
2021/07/19 06:54:34;;;;;;;22.57;21.07;;;21.80;99.90;;;;;;5012237;28;20449;-71
2021/07/19 06:57:02;;;;;;;20.60;19.40;;;22.00;99.90;;;;;;5011808;28;20992;-71
2021/07/19 06:59:28;;;;;;;21.60;20.20;;;22.10;99.90;;;;;;5012050;28;20450;-71
2021/07/19 07:01:55;;;;;;;20.23;18.90;;;22.00;99.90;;;;;;5011667;28;20466;-71
2021/07/19 07:04:22;;;;;;;20.90;19.50;;;22.10;99.90;;;;;;5011747;28;20445;-70
2021/07/19 07:06:48;;;;;;;21.50;19.97;;;22.10;99.90;;;;;;5011887;28;20438;-70
2021/07/19 07:09:15;;;;;;;21.53;20.13;;;22.00;99.90;;;;;;5011883;28;20447;-71
2021/07/19 07:11:42;;;;;;;20.83;19.60;;;22.00;99.90;;;;;;5010814;28;20462;-70
2021/07/19 07:14:10;;;;;;;20.30;19.10;;;21.70;99.90;;;;;;5011810;28;20438;-71
2021/07/19 07:16:37;;;;;;;22.17;20.60;;;21.50;99.90;;;;;;5011588;28;21030;-71
2021/07/19 07:19:04;;;;;;;21.07;19.73;;;21.40;99.90;;;;;;5011625;28;20446;-70
2021/07/19 07:21:31;;;;;;;22.27;20.97;;;21.40;99.90;;;;;;5011473;28;20453;-71
2021/07/19 07:23:58;;;;;;;22.57;20.73;;;21.30;99.90;;;;;;5011575;28;20453;-71
2021/07/19 07:26:26;;;;;;;25.83;23.80;;;21.20;99.90;;;;;;5011636;28;20446;-71
2021/07/19 07:28:52;;;;;;;21.63;20.17;;;21.30;99.90;;;;;;5011673;28;20489;-71
2021/07/19 07:31:25;;;;;;;22.07;20.67;;;21.50;99.90;;;;;;5011237;28;20958;-71
2021/07/19 07:33:52;;;;;;;22.40;21.00;;;21.70;99.90;;;;;;5011730;28;20449;-70
2021/07/19 07:36:18;;;;;;;22.00;20.53;;;21.70;99.90;;;;;;5011503;28;20991;-72
2021/07/19 07:38:45;;;;;;;21.73;20.53;;;21.90;99.90;;;;;;5011530;28;20445;-70
2021/07/19 07:41:12;;;;;;;23.40;21.83;;;22.20;99.90;;;;;;5011336;28;20441;-71
2021/07/19 07:43:38;;;;;;;25.10;23.20;;;22.50;99.90;;;;;;5011260;28;20473;-71
2021/07/19 07:46:05;;;;;;;24.03;22.53;;;22.70;99.90;;;;;;5011472;28;20438;-71
2021/07/19 07:48:35;;;;;;;23.73;22.23;;;22.60;99.90;;;;;;5011497;28;20521;-71
2021/07/19 07:51:02;;;;;;;24.50;23.10;;;22.70;99.90;;;;;;5011370;28;20450;-71
2021/07/19 07:53:28;;;;;;;24.60;23.10;;;22.40;99.90;;;;;;5011353;28;20983;-71
2021/07/19 07:55:57;;;;;;;23.13;21.80;;;22.40;99.90;;;;;;5011313;28;20485;-70
2021/07/19 07:58:24;;;;;;;25.10;23.40;;;22.70;99.90;;;;;;5011390;28;20450;-70
2021/07/19 08:00:51;;;;;;;24.33;22.93;;;22.80;99.90;;;;;;5011389;28;20450;-71
2021/07/19 08:03:18;;;;;;;23.87;22.50;;;22.70;99.90;;;;;;5011066;28;20457;-71
2021/07/19 08:05:46;;;;;;;23.70;22.20;;;22.70;99.90;;;;;;5011395;28;20449;-71
2021/07/19 08:08:13;;;;;;;24.77;23.33;;;22.70;99.90;;;;;;5011190;28;20966;-71
2021/07/19 08:10:40;;;;;;;25.40;23.80;;;22.80;99.90;;;;;;5011198;28;20442;-71
2021/07/19 08:13:07;;;;;;;23.83;22.43;;;23.00;99.90;;;;;;5011044;28;20473;-71
2021/07/19 08:15:34;;;;;;;23.10;21.60;;;23.00;99.30;;;;;;5011072;28;20821;-71
2021/07/19 08:18:01;;;;;;;23.10;21.80;;;22.90;99.30;;;;;;5011188;28;20831;-70
2021/07/19 08:20:28;;;;;;;23.87;22.47;;;23.00;99.00;;;;;;5011129;28;20449;-72
2021/07/19 08:22:56;;;;;;;24.00;22.33;;;23.20;99.00;;;;;;5011546;28;20470;-74
2021/07/19 08:25:23;;;;;;;24.57;23.10;;;23.20;97.90;;;;;;5014525;28;20815;-71
2021/07/19 08:27:50;;;;;;;22.80;21.60;;;23.20;98.50;;;;;;5014751;28;20456;-70
2021/07/19 08:30:18;;;;;;;24.63;23.13;;;23.30;98.90;;;;;;5014517;28;20457;-71
2021/07/19 08:32:45;;;;;;;24.60;23.07;;;23.20;98.80;;;;;;5014117;28;20478;-71
2021/07/19 08:35:13;;;;;;;23.70;22.30;;;23.10;97.70;;;;;;5014507;28;20453;-71
2021/07/19 08:37:40;;;;;;;24.10;22.77;;;23.10;97.70;;;;;;5014405;28;20450;-72
2021/07/19 08:40:10;;;;;;;22.47;21.17;;;23.10;98.20;;;;;;5014342;28;20445;-71
2021/07/19 08:42:39;;;;;;;24.60;23.20;;;23.00;98.20;;;;;;5014040;28;20477;-70
2021/07/19 08:45:09;;;;;;;24.43;22.93;;;22.90;98.10;;;;;;5014292;28;20450;-70
2021/07/19 08:47:36;;;;;;;23.60;22.30;;;22.90;98.00;;;;;;5014304;28;20450;-70
2021/07/19 08:50:04;;;;;;;23.87;22.43;;;22.80;98.90;;;;;;5014329;28;20473;-71
2021/07/19 08:52:31;;;;;;;23.93;22.20;;;22.70;98.30;;;;;;5013973;28;21018;-70
2021/07/19 08:54:59;;;;;;;23.70;22.20;;;22.50;98.70;;;;;;5014288;28;20470;-70
2021/07/19 08:57:28;;;;;;;25.67;23.97;;;22.30;99.70;;;;;;5014037;28;20473;-70
2021/07/19 08:59:58;;;;;;;26.17;24.47;;;22.50;99.50;;;;;;5014039;28;20461;-70
2021/07/19 09:02:25;;;;;;;24.13;22.63;;;22.50;98.80;;;;;;5013634;28;20465;-70
2021/07/19 09:04:51;;;;;;;26.73;24.90;;;22.70;99.20;;;;;;5013969;28;20517;-70
2021/07/19 09:07:19;;;;;;;27.20;25.30;;;22.70;98.30;;;;;;5013808;28;20467;-70
2021/07/19 09:09:45;;;;;;;27.07;25.27;;;22.70;97.80;;;;;;5013799;28;20450;-70
2021/07/19 09:12:12;;;;;;;25.57;24.00;;;22.70;98.60;;;;;;5013579;28;20470;-70
2021/07/19 09:14:48;;;;;;;25.90;24.27;;;22.60;98.10;;;;;;5013925;28;20439;-70
2021/07/19 09:17:22;;;;;;;26.57;24.67;;;22.70;98.60;;;;;;5013662;28;20485;-70
2021/07/19 09:19:49;;;;;;;26.07;24.10;;;22.80;99.10;;;;;;5013767;28;20452;-70
2021/07/19 09:22:23;;;;;;;24.83;23.30;;;22.60;98.90;;;;;;5013163;28;20470;-70
2021/07/19 09:24:50;;;;;;;25.20;23.50;;;22.50;99.00;;;;;;5013575;28;20489;-71
2021/07/19 09:27:19;;;;;;;26.00;24.20;;;22.30;98.90;;;;;;5013444;28;20979;-70
2021/07/19 09:29:48;;;;;;;27.50;25.40;;;22.30;99.30;;;;;;5013383;28;20481;-70
2021/07/19 09:32:15;;;;;;;24.83;23.23;;;22.20;99.60;;;;;;5012947;28;20485;-70
2021/07/19 09:34:42;;;;;;;26.87;25.00;;;22.10;99.90;;;;;;5012690;28;20508;-70
2021/07/19 09:37:11;;;;;;;24.00;22.43;;;21.80;99.90;;;;;;5013215;28;20516;-70
2021/07/19 09:39:44;;;;;;;25.30;23.70;;;21.90;99.90;;;;;;5013118;28;20936;-70
2021/07/19 09:42:13;;;;;;;24.93;23.40;;;22.00;99.90;;;;;;5013026;28;20462;-70
2021/07/19 09:44:41;;;;;;;25.17;23.67;;;22.20;99.90;;;;;;5013150;28;20934;-70
2021/07/19 09:47:12;;;;;;;24.93;23.13;;;22.30;99.90;;;;;;5013139;28;20449;-70
2021/07/19 09:49:40;;;;;;;25.57;23.80;;;22.20;99.40;;;;;;5013238;28;20442;-70
2021/07/19 09:52:08;;;;;;;25.00;23.30;;;22.50;99.70;;;;;;5012830;28;20466;-70
2021/07/19 09:54:41;;;;;;;26.20;24.60;;;22.70;99.60;;;;;;5012913;28;20881;-70
2021/07/19 09:57:08;;;;;;;25.70;24.00;;;22.90;99.80;;;;;;5012794;28;20860;-70
2021/07/19 09:59:38;;;;;;;26.30;24.60;;;23.20;99.30;;;;;;5012797;28;20457;-70
2021/07/19 10:02:07;;;;;;;26.60;24.83;;;23.30;97.70;;;;;;5012537;28;20471;-70
2021/07/19 10:04:43;;;;;;;27.07;25.20;;;23.40;97.10;;;;;;5012838;28;20450;-70
2021/07/19 10:07:09;;;;;;;27.37;25.57;;;23.30;96.60;;;;;;5012710;28;20469;-70
2021/07/19 10:09:39;;;;;;;25.43;23.83;;;23.60;96.40;;;;;;5012513;28;20449;-70
2021/07/19 10:12:16;;;;;;;24.90;23.40;;;23.90;95.80;;;;;;5012260;28;20500;-70
2021/07/19 10:14:44;;;;;;;24.40;23.00;;;24.00;95.80;;;;;;5012599;28;20488;-70
2021/07/19 10:17:12;;;;;;;25.70;24.07;;;24.00;95.60;;;;;;5012478;28;20991;-70
2021/07/19 10:19:41;;;;;;;26.47;24.67;;;24.00;95.70;;;;;;5012490;28;20449;-69
2021/07/19 10:22:08;;;;;;;27.20;25.30;;;24.00;93.80;;;;;;5012290;28;20498;-70
2021/07/19 10:24:35;;;;;;;25.87;24.17;;;23.90;95.10;;;;;;5012413;28;20462;-70
2021/07/19 10:27:02;;;;;;;26.57;24.67;;;24.00;95.30;;;;;;5012426;28;20480;-70
2021/07/19 10:29:29;;;;;;;26.13;24.33;;;24.20;95.30;;;;;;5012409;28;20442;-70
2021/07/19 10:31:56;;;;;;;27.00;25.30;;;24.20;94.40;;;;;;5011936;28;20481;-70
2021/07/19 10:34:23;;;;;;;25.23;23.63;;;24.30;94.80;;;;;;5012381;28;20457;-70
2021/07/19 10:36:54;;;;;;;25.53;24.03;;;24.40;94.70;;;;;;5012165;28;20485;-70
2021/07/19 10:39:25;;;;;;;26.70;24.97;;;24.40;94.80;;;;;;5012138;28;20813;-71
2021/07/19 10:42:00;;;;;;;27.07;25.17;;;24.30;95.10;;;;;;5011890;28;20496;-70
2021/07/19 10:44:30;;;;;;;26.73;24.97;;;24.30;95.00;;;;;;5012127;28;20499;-70
2021/07/19 10:46:58;;;;;;;28.10;26.20;;;24.10;94.40;;;;;;5012120;28;20450;-71
2021/07/19 10:49:31;;;;;;;24.90;23.23;;;24.10;94.80;;;;;;5012015;28;20951;-70
2021/07/19 10:52:10;;;;;;;26.47;24.60;;;24.10;94.30;;;;;;5011741;28;20470;-70
2021/07/19 10:54:47;;;;;;;25.00;23.40;;;24.40;94.30;;;;;;5011948;28;20442;-70
2021/07/19 10:57:17;;;;;;;27.33;25.63;;;24.80;93.20;;;;;;5011915;28;20521;-70
2021/07/19 10:59:45;;;;;;;28.90;26.90;;;24.90;92.00;;;;;;5011837;28;21269;-70
2021/07/19 11:02:27;;;;;;;26.33;24.73;;;25.40;90.40;;;;;;5011583;28;20968;-70
2021/07/19 11:04:54;;;;;;;25.80;24.20;;;25.90;87.40;;;;;;5012034;28;20473;-70
2021/07/19 11:07:25;;;;;;;25.80;24.30;;;26.50;85.80;;;;;;5011778;28;20458;-71
2021/07/19 11:09:51;;;;;;;26.83;25.20;;;27.00;81.20;;;;;;5011876;28;20486;-70
2021/07/19 11:12:18;;;;;;;26.97;25.17;;;27.10;79.50;;;;;;5011466;28;20840;-70
2021/07/19 11:14:47;;;;;;;24.97;23.57;;;27.30;75.00;;;;;;5011704;28;20533;-70
2021/07/19 11:17:15;;;;;;;25.80;24.30;;;26.90;75.20;;;;;;5011678;28;20481;-70
2021/07/19 11:19:42;;;;;;;26.63;24.93;;;26.70;76.90;;;;;;5011633;28;20446;-70
2021/07/19 11:22:10;;;;;;;26.97;25.00;;;26.60;73.70;;;;;;5011292;28;20991;-70
2021/07/19 11:24:43;;;;;;;25.23;23.77;;;26.90;72.90;;;;;;5011618;28;20471;-70
2021/07/19 11:27:12;;;;;;;26.00;24.33;;;27.70;73.30;;;;;;5011808;28;20450;-70
2021/07/19 11:29:40;;;;;;;28.40;26.50;;;28.30;69.70;;;;;;5011550;28;20450;-70
2021/07/19 11:32:19;;;;;;;29.23;27.43;;;28.70;68.10;;;;;;5011199;28;20478;-70
2021/07/19 11:34:47;;;;;;;27.97;26.23;;;29.20;62.20;;;;;;5011567;28;20460;-70
2021/07/19 11:37:14;;;;;;;30.30;28.07;;;29.80;58.60;;;;;;5011366;28;21002;-70
2021/07/19 11:39:47;;;;;;;26.80;25.20;;;29.20;57.10;;;;;;5011431;28;20525;-70
2021/07/19 11:42:15;;;;;;;27.83;26.27;;;28.40;58.40;;;;;;5011276;28;21037;-70
2021/07/19 11:44:43;;;;;;;27.20;25.30;;;27.90;58.90;;;;;;5011613;28;20450;-70
2021/07/19 11:47:10;;;;;;;26.17;24.63;;;27.50;59.70;;;;;;5011349;28;20857;-70
2021/07/19 11:49:37;;;;;;;28.77;27.07;;;25.50;62.40;;;;;;5011331;28;20445;-70
2021/07/19 11:52:09;;;;;;;29.00;27.30;;;25.80;66.80;;;;;;5011048;28;20528;-70
2021/07/19 11:54:39;;;;;;;30.83;28.83;;;27.10;63.90;;;;;;5011376;28;20500;-70
2021/07/19 11:57:09;;;;;;;30.30;28.60;;;26.90;61.80;;;;;;5011435;28;20481;-70
2021/07/19 11:59:38;;;;;;;27.57;25.90;;;26.60;62.60;;;;;;5014672;28;20549;-70
2021/07/19 12:02:05;;;;;;;27.10;25.47;;;26.60;62.60;;;;;;5014768;28;20556;-71
2021/07/19 12:04:43;;;;;;;25.73;24.23;;;26.70;63.60;;;;;;5015036;28;20450;-70
2021/07/19 12:07:11;;;;;;;28.10;26.47;;;27.00;63.40;;;;;;5015028;28;20453;-71
2021/07/19 12:09:39;;;;;;;27.03;25.27;;;26.90;61.50;;;;;;5014866;28;20821;-70
2021/07/19 12:12:08;;;;;;;27.83;26.23;;;26.60;61.60;;;;;;5014601;28;20476;-71
2021/07/19 12:14:35;;;;;;;27.57;25.80;;;26.70;63.90;;;;;;5014887;28;20453;-71
2021/07/19 12:17:04;;;;;;;26.80;25.10;;;27.00;63.80;;;;;;5014705;28;20474;-70
2021/07/19 12:19:31;;;;;;;27.40;25.87;;;27.20;63.20;;;;;;5014953;28;20815;-70
2021/07/19 12:22:00;;;;;;;26.50;25.00;;;27.60;62.50;;;;;;5014472;28;20830;-70
2021/07/19 12:24:30;;;;;;;25.83;24.23;;;27.60;60.90;;;;;;5014576;28;20489;-70
2021/07/19 12:27:01;;;;;;;27.37;25.63;;;28.00;62.30;;;;;;5014754;28;20442;-71
2021/07/19 12:29:31;;;;;;;29.57;27.77;;;29.40;59.90;;;;;;5014656;28;20864;-68
2021/07/19 12:32:03;;;;;;;31.23;29.43;;;32.00;54.70;;;;;;5073405;23;20456;-69
2021/07/19 12:34:32;;;;;;;32.43;30.43;;;30.90;50.10;;;;;;5052696;28;20445;-70